createdAt,value
2018-12-01T00:00:24.476Z,7.30
2018-12-01T00:02:52.899Z,7.60
2018-12-01T00:05:27.628Z,7.60
2018-12-01T00:07:56.543Z,7.60
2018-12-01T00:10:25.043Z,7.60
2018-12-01T00:12:53.682Z,7.60
2018-12-01T00:15:24.847Z,7.50
2018-12-01T00:17:53.870Z,7.50
2018-12-01T00:20:28.017Z,7.50
2018-12-01T00:22:56.360Z,7.40
2018-12-01T00:25:25.019Z,7.30
2018-12-01T00:27:53.626Z,7.30
2018-12-01T00:30:23.562Z,7.20
2018-12-01T00:32:53.528Z,7.20
2018-12-01T00:35:22.505Z,7.20
2018-12-01T00:37:50.915Z,7.10
2018-12-01T00:40:20.679Z,7.10
2018-12-01T00:42:49.267Z,7.10
2018-12-01T00:45:19.006Z,7.10
2018-12-01T00:47:51.878Z,7.10
2018-12-01T00:50:21.990Z,7.00
2018-12-01T00:52:51.802Z,7.10
2018-12-01T00:55:20.613Z,7.00
2018-12-01T00:57:49.095Z,7.00
2018-12-01T01:00:22.438Z,7.10
2018-12-01T01:02:55.240Z,7.10
2018-12-01T01:05:25.917Z,7.10
2018-12-01T01:07:55.775Z,7.10
2018-12-01T01:10:26.011Z,7.10
2018-12-01T01:12:54.330Z,7.20
2018-12-01T01:15:23.195Z,7.50
2018-12-01T01:17:51.873Z,7.20
2018-12-01T01:20:22.085Z,7.20
2018-12-01T01:22:50.969Z,7.30
2018-12-01T01:25:19.653Z,7.30
2018-12-01T01:27:48.037Z,7.30
2018-12-01T01:30:21.930Z,7.30
2018-12-01T01:32:52.086Z,7.30
2018-12-01T01:35:20.566Z,7.30
2018-12-01T01:40:18.537Z,7.30
2018-12-01T01:42:46.935Z,7.30
2018-12-01T01:45:16.795Z,7.30
2018-12-01T01:47:45.802Z,7.20
2018-12-01T01:50:17.086Z,7.30
2018-12-01T01:52:46.502Z,7.30
2018-12-01T01:55:14.862Z,7.30
2018-12-01T01:57:43.345Z,7.30
2018-12-01T02:00:18.015Z,7.30
2018-12-01T02:02:47.831Z,7.40
2018-12-01T02:05:18.159Z,7.30
2018-12-01T02:07:46.583Z,7.30
2018-12-01T02:10:16.242Z,7.30
2018-12-01T02:12:44.633Z,7.60
2018-12-01T02:15:14.102Z,7.20
2018-12-01T02:25:14.768Z,7.30
2018-12-01T02:27:43.918Z,7.20
2018-12-01T02:30:17.791Z,7.30
2018-12-01T02:32:46.531Z,7.30
2018-12-01T02:37:47.077Z,7.30
2018-12-01T02:40:15.544Z,7.20
2018-12-01T02:42:44.351Z,7.30
2018-12-01T02:45:30.210Z,7.30
2018-12-01T02:47:59.256Z,7.30
2018-12-01T02:50:28.398Z,7.30
2018-12-01T02:52:59.217Z,7.30
2018-12-01T02:55:27.802Z,7.30
2018-12-01T02:57:56.284Z,7.30
2018-12-01T03:00:24.748Z,7.30
2018-12-01T03:02:53.100Z,7.30
2018-12-01T03:05:23.064Z,7.30
2018-12-01T03:07:52.699Z,7.30
2018-12-01T03:12:52.253Z,7.30
2018-12-01T03:15:20.671Z,7.20
2018-12-01T03:17:50.845Z,7.20
2018-12-01T03:22:47.715Z,7.10
2018-12-01T03:25:18.397Z,7.00
2018-12-01T03:27:47.917Z,7.00
2018-12-01T03:30:22.033Z,7.10
2018-12-01T03:35:20.490Z,7.10
2018-12-01T03:37:49.315Z,7.00
2018-12-01T03:40:19.358Z,7.00
2018-12-01T03:42:47.963Z,7.00
2018-12-01T03:45:18.494Z,7.00
2018-12-01T03:47:47.166Z,6.90
2018-12-01T03:50:23.110Z,7.00
2018-12-01T03:52:55.941Z,7.10
2018-12-01T03:55:32.181Z,7.00
2018-12-01T03:58:01.541Z,7.00
2018-12-01T04:00:31.584Z,7.20
2018-12-01T04:03:01.655Z,7.20
2018-12-01T04:05:30.298Z,7.30
2018-12-01T04:07:58.768Z,7.20
2018-12-01T04:10:27.209Z,8.60
2018-12-01T04:12:55.832Z,7.40
2018-12-01T04:15:25.168Z,7.40
2018-12-01T04:17:53.553Z,7.30
2018-12-01T04:20:21.975Z,7.40
2018-12-01T04:22:50.743Z,7.40
2018-12-01T04:25:19.669Z,7.40
2018-12-01T04:27:48.063Z,7.30
2018-12-01T04:30:22.961Z,7.20
2018-12-01T04:32:51.581Z,7.20
2018-12-01T04:35:23.014Z,7.30
2018-12-01T04:37:53.793Z,7.30
2018-12-01T04:40:22.458Z,7.30
2018-12-01T04:42:50.917Z,7.30
2018-12-01T04:45:19.416Z,7.30
2018-12-01T04:47:48.394Z,7.30
2018-12-01T04:50:18.222Z,7.10
2018-12-01T04:52:48.118Z,7.10
2018-12-01T04:57:47.087Z,6.90
2018-12-01T05:00:18.382Z,6.90
2018-12-01T05:02:47.218Z,7.00
2018-12-01T05:05:19.780Z,6.90
2018-12-01T05:07:48.466Z,6.80
2018-12-01T05:10:18.457Z,6.80
2018-12-01T05:12:46.806Z,6.80
2018-12-01T05:15:17.540Z,6.80
2018-12-01T05:17:46.554Z,6.80
2018-12-01T05:20:20.609Z,6.70
2018-12-01T05:22:49.764Z,6.70
2018-12-01T05:25:19.508Z,6.70
2018-12-01T05:27:48.236Z,6.60
2018-12-01T05:30:16.846Z,6.60
2018-12-01T05:32:45.499Z,6.50
2018-12-01T05:42:44.094Z,6.40
2018-12-01T05:45:19.234Z,6.20
2018-12-01T05:47:47.854Z,6.10
2018-12-01T05:50:28.022Z,6.10
2018-12-01T05:52:57.139Z,6.00
2018-12-01T05:55:25.624Z,5.90
2018-12-01T05:57:54.020Z,5.90
2018-12-01T06:00:22.424Z,5.80
2018-12-01T06:02:51.986Z,5.80
2018-12-01T06:05:20.332Z,5.80
2018-12-01T06:07:49.281Z,6.10
2018-12-01T06:10:19.863Z,5.80
2018-12-01T06:12:49.880Z,5.80
2018-12-01T06:15:19.838Z,5.80
2018-12-01T06:17:48.294Z,5.80
2018-12-01T06:20:19.571Z,5.80
2018-12-01T06:22:47.848Z,5.70
2018-12-01T06:25:18.227Z,5.70
2018-12-01T06:27:46.911Z,5.80
2018-12-01T06:30:17.936Z,5.80
2018-12-01T06:32:47.462Z,5.70
2018-12-01T06:35:16.283Z,5.70
2018-12-01T06:37:44.657Z,5.70
2018-12-01T06:40:18.258Z,5.70
2018-12-01T06:42:46.931Z,5.70
2018-12-01T06:45:16.179Z,5.70
2018-12-01T06:47:44.783Z,5.70
2018-12-01T06:50:20.552Z,5.70
2018-12-01T06:52:49.621Z,5.70
2018-12-01T06:55:18.258Z,5.70
2018-12-01T06:57:47.297Z,5.70
2018-12-01T07:00:19.117Z,5.70
2018-12-01T07:02:48.186Z,5.60
2018-12-01T07:05:17.823Z,5.70
2018-12-01T07:07:46.181Z,5.70
2018-12-01T07:10:16.843Z,5.70
2018-12-01T07:12:49.166Z,5.60
2018-12-01T07:17:47.985Z,5.60
2018-12-01T07:20:16.940Z,5.70
2018-12-01T07:22:45.323Z,5.70
2018-12-01T07:25:13.634Z,5.60
2018-12-01T07:27:42.120Z,5.60
2018-12-01T07:32:44.026Z,5.50
2018-12-01T07:35:12.407Z,5.60
2018-12-01T07:37:41.328Z,5.60
2018-12-01T07:42:43.866Z,5.60
2018-12-01T07:45:14.113Z,5.70
2018-12-01T07:47:42.530Z,5.70
2018-12-01T07:52:41.466Z,5.90
2018-12-01T07:55:09.891Z,5.80
2018-12-01T07:57:38.335Z,5.90
2018-12-01T08:00:12.203Z,5.90
2018-12-01T08:02:41.406Z,5.90
2018-12-01T08:05:11.107Z,6.00
2018-12-01T08:07:39.798Z,5.90
2018-12-01T08:10:12.786Z,6.00
2018-12-01T08:12:41.607Z,6.10
2018-12-01T08:15:15.686Z,6.10
2018-12-01T08:17:45.130Z,6.20
2018-12-01T08:20:15.203Z,6.20
2018-12-01T08:22:43.650Z,6.30
2018-12-01T08:25:15.984Z,6.30
2018-12-01T08:27:45.633Z,6.30
2018-12-01T08:30:25.889Z,6.30
2018-12-01T08:32:54.248Z,6.40
2018-12-01T08:35:23.495Z,6.50
2018-12-01T08:37:52.637Z,6.50
2018-12-01T08:40:23.171Z,6.60
2018-12-01T08:42:51.525Z,6.70
2018-12-01T08:45:20.266Z,6.80
2018-12-01T08:47:48.642Z,6.80
2018-12-01T08:50:21.740Z,6.80
2018-12-01T08:52:57.173Z,7.20
2018-12-01T08:55:25.608Z,7.10
2018-12-01T09:00:27.434Z,7.20
2018-12-01T09:07:57.837Z,7.40
2018-12-01T09:10:26.222Z,7.40
2018-12-01T09:12:54.555Z,7.30
2018-12-01T09:15:22.954Z,7.30
2018-12-01T09:17:51.571Z,7.40
2018-12-01T09:22:48.317Z,7.50
2018-12-01T09:25:18.542Z,7.50
2018-12-01T09:27:47.458Z,7.50
2018-12-01T09:30:28.298Z,7.60
2018-12-01T09:32:57.411Z,7.70
2018-12-01T09:35:25.312Z,7.90
2018-12-01T09:37:55.179Z,8.20
2018-12-01T09:40:24.209Z,8.10
2018-12-01T09:42:52.675Z,8.50
2018-12-01T09:45:23.008Z,8.60
2018-12-01T09:47:53.653Z,8.70
2018-12-01T09:50:22.240Z,8.80
2018-12-01T09:52:53.743Z,8.60
2018-12-01T09:55:28.951Z,8.80
2018-12-01T09:57:58.782Z,8.80
2018-12-01T10:00:32.537Z,8.80
2018-12-01T10:03:03.599Z,8.90
2018-12-01T10:05:33.718Z,9.00
2018-12-01T10:08:02.246Z,9.30
2018-12-01T10:10:30.958Z,9.30
2018-12-01T10:12:59.332Z,9.40
2018-12-01T10:15:33.062Z,9.40
2018-12-01T10:18:01.722Z,9.60
2018-12-01T10:20:33.146Z,9.60
2018-12-01T10:23:03.890Z,9.80
2018-12-01T10:25:32.370Z,9.90
2018-12-01T10:28:01.112Z,10.00
2018-12-01T10:30:29.806Z,10.00
2018-12-01T10:32:58.290Z,10.10
2018-12-01T10:35:27.370Z,10.10
2018-12-01T10:38:02.184Z,10.10
2018-12-01T10:40:30.981Z,9.90
2018-12-01T10:42:59.341Z,9.60
2018-12-01T10:45:28.221Z,9.60
2018-12-01T10:47:56.842Z,9.60
2018-12-01T10:50:25.181Z,9.60
2018-12-01T10:52:54.843Z,9.50
2018-12-01T10:55:30.554Z,9.60
2018-12-01T10:58:16.789Z,9.70
2018-12-01T11:00:52.541Z,9.70
2018-12-01T11:03:27.878Z,9.90
2018-12-01T11:05:58.023Z,9.90
2018-12-01T11:08:26.478Z,10.10
2018-12-01T11:13:23.511Z,10.70
2018-12-01T11:15:51.990Z,10.80
2018-12-01T11:18:20.743Z,10.80
2018-12-01T11:20:49.221Z,10.90
2018-12-01T11:23:17.672Z,10.80
2018-12-01T11:25:46.422Z,11.30
2018-12-01T11:28:15.098Z,10.90
2018-12-01T11:33:11.796Z,11.10
2018-12-01T11:35:40.286Z,11.00
2018-12-01T11:38:09.153Z,10.80
2018-12-01T11:43:08.466Z,10.60
2018-12-01T11:45:36.797Z,10.70
2018-12-01T11:48:06.071Z,10.50
2018-12-01T11:50:34.703Z,10.60
2018-12-01T11:53:03.774Z,10.80
2018-12-01T11:55:32.242Z,10.80
2018-12-01T11:58:01.688Z,11.00
2018-12-01T12:00:30.444Z,11.00
2018-12-01T12:02:59.598Z,11.10
2018-12-01T12:05:28.008Z,11.10
2018-12-01T12:08:13.392Z,11.10
2018-12-01T12:10:41.891Z,11.20
2018-12-01T12:13:10.798Z,11.00
2018-12-01T12:15:39.169Z,11.20
2018-12-01T12:18:07.794Z,11.10
2018-12-01T12:20:36.438Z,11.10
2018-12-01T12:23:05.941Z,11.30
2018-12-01T12:25:34.635Z,11.30
2018-12-01T12:28:03.252Z,11.40
2018-12-01T12:30:31.624Z,11.50
2018-12-01T12:33:00.087Z,11.50
2018-12-01T12:37:56.672Z,11.20
2018-12-01T12:40:27.010Z,11.10
2018-12-01T12:42:57.050Z,11.10
2018-12-01T12:45:25.516Z,11.30
2018-12-01T12:47:54.210Z,11.30
2018-12-01T12:50:22.966Z,11.60
2018-12-01T12:52:53.924Z,11.90
2018-12-01T12:57:55.139Z,12.20
2018-12-01T13:00:24.946Z,12.10
2018-12-01T13:03:04.566Z,12.10
2018-12-01T13:05:42.858Z,12.00
2018-12-01T13:08:13.630Z,11.80
2018-12-01T13:10:42.041Z,11.70
2018-12-01T13:15:40.037Z,13.40
2018-12-01T13:18:12.891Z,13.50
2018-12-01T13:20:43.227Z,13.70
2018-12-01T13:23:11.636Z,13.60
2018-12-01T13:25:41.115Z,12.60
2018-12-01T13:28:17.892Z,12.60
2018-12-01T13:30:51.292Z,12.10
2018-12-01T13:33:20.061Z,12.10
2018-12-01T13:35:48.618Z,11.90
2018-12-01T13:38:17.464Z,11.50
2018-12-01T13:40:45.862Z,11.50
2018-12-01T13:43:14.226Z,11.40
2018-12-01T13:45:42.672Z,11.50
2018-12-01T13:48:12.106Z,11.50
2018-12-01T13:50:40.433Z,11.40
2018-12-01T13:53:11.506Z,11.40
2018-12-01T13:55:40.183Z,11.30
2018-12-01T13:58:08.597Z,11.30
2018-12-01T14:00:37.359Z,11.30
2018-12-01T14:03:06.527Z,11.30
2018-12-01T14:05:34.899Z,11.30
2018-12-01T14:08:03.387Z,11.30
2018-12-01T14:10:32.430Z,11.30
2018-12-01T14:13:08.429Z,11.00
2018-12-01T14:15:36.799Z,11.00
2018-12-01T14:18:06.375Z,11.00
2018-12-01T14:20:34.842Z,10.90
2018-12-01T14:23:03.303Z,11.20
2018-12-01T14:25:31.794Z,11.20
2018-12-01T14:28:04.115Z,11.30
2018-12-01T14:30:32.772Z,11.10
2018-12-01T14:33:01.128Z,10.90
2018-12-01T14:35:33.682Z,10.80
2018-12-01T14:38:18.640Z,10.80
2018-12-01T14:40:49.818Z,10.70
2018-12-01T14:43:18.212Z,10.70
2018-12-01T14:45:48.714Z,10.60
2018-12-01T14:48:17.315Z,10.60
2018-12-01T14:50:48.523Z,10.60
2018-12-01T14:53:16.634Z,10.70
2018-12-01T14:55:45.019Z,10.50
2018-12-01T15:00:41.761Z,10.50
2018-12-01T15:03:10.272Z,10.40
2018-12-01T15:05:40.236Z,10.40
2018-12-01T15:08:08.732Z,10.40
2018-12-01T15:10:37.336Z,10.40
2018-12-01T15:13:06.394Z,10.40
2018-12-01T15:15:34.740Z,10.70
2018-12-01T15:18:03.539Z,10.30
2018-12-01T15:20:32.299Z,10.30
2018-12-01T15:23:00.943Z,10.30
2018-12-01T15:25:31.115Z,10.20
2018-12-01T15:27:59.752Z,10.20
2018-12-01T15:30:29.368Z,10.20
2018-12-01T15:33:16.662Z,10.20
2018-12-01T15:35:46.687Z,10.10
2018-12-01T15:38:15.866Z,10.10
2018-12-01T15:40:46.789Z,10.10
2018-12-01T15:43:16.979Z,10.00
2018-12-01T15:45:44.508Z,10.00
2018-12-01T15:48:13.032Z,10.00
2018-12-01T15:50:41.529Z,9.90
2018-12-01T15:53:13.081Z,10.00
2018-12-01T15:55:43.198Z,9.90
2018-12-01T15:58:10.582Z,9.90
2018-12-01T16:00:40.148Z,9.90
2018-12-01T16:03:08.624Z,9.90
2018-12-01T16:05:37.053Z,9.90
2018-12-01T16:08:07.072Z,9.90
2018-12-01T16:13:10.189Z,9.80
2018-12-01T16:16:10.661Z,9.80
2018-12-01T16:18:39.023Z,9.70
2018-12-01T16:21:07.447Z,9.60
2018-12-01T16:23:35.730Z,9.60
2018-12-01T16:26:04.366Z,9.60
2018-12-01T16:28:32.836Z,9.50
2018-12-01T16:31:01.277Z,9.50
2018-12-01T16:33:29.793Z,9.50
2018-12-01T16:35:58.747Z,9.40
2018-12-01T16:38:29.837Z,9.30
2018-12-01T16:43:33.607Z,9.20
2018-12-01T16:46:02.027Z,9.30
2018-12-01T16:48:37.568Z,9.20
2018-12-01T16:51:06.498Z,9.10
2018-12-01T16:53:34.876Z,9.10
2018-12-01T16:56:03.618Z,9.00
2018-12-01T17:01:00.281Z,9.00
2018-12-01T17:03:28.619Z,9.00
2018-12-01T17:05:59.162Z,8.90
2018-12-01T17:08:27.758Z,8.90
2018-12-01T17:10:56.280Z,8.80
2018-12-01T17:13:24.667Z,8.90
2018-12-01T17:15:53.030Z,8.80
2018-12-01T17:20:49.716Z,8.70
2018-12-01T17:23:18.465Z,8.70
2018-12-01T17:28:17.577Z,8.70
2018-12-01T17:30:45.970Z,8.60
2018-12-01T17:33:14.374Z,8.60
2018-12-01T17:35:42.747Z,8.60
2018-12-01T17:38:13.706Z,8.60
2018-12-01T17:41:00.008Z,8.60
2018-12-01T17:43:38.330Z,8.60
2018-12-01T17:46:07.074Z,8.60
2018-12-01T17:48:35.682Z,8.50
2018-12-01T17:51:04.256Z,8.50
2018-12-01T17:53:32.577Z,8.40
2018-12-01T17:56:00.961Z,8.40
2018-12-01T17:58:29.289Z,8.50
2018-12-01T18:00:57.959Z,8.40
2018-12-01T18:03:26.293Z,8.40
2018-12-01T18:05:54.941Z,8.40
2018-12-01T18:08:24.281Z,8.40
2018-12-01T18:10:54.261Z,8.40
2018-12-01T18:13:23.671Z,8.40
2018-12-01T18:15:52.046Z,8.40
2018-12-01T18:18:20.419Z,8.40
2018-12-01T18:20:48.768Z,8.40
2018-12-01T18:23:18.931Z,8.40
2018-12-01T18:25:49.522Z,8.30
2018-12-01T18:30:48.273Z,8.30
2018-12-01T18:33:23.599Z,8.20
2018-12-01T18:35:51.996Z,8.40
2018-12-01T18:38:20.299Z,8.40
2018-12-01T18:40:48.874Z,8.40
2018-12-01T18:43:17.605Z,8.40
2018-12-01T18:45:50.011Z,8.20
2018-12-01T18:48:18.366Z,8.30
2018-12-01T18:50:47.176Z,8.20
2018-12-01T18:53:15.815Z,8.40
2018-12-01T18:55:49.831Z,8.30
2018-12-01T18:58:18.211Z,8.30
2018-12-01T19:00:52.227Z,8.30
2018-12-01T19:03:23.063Z,8.30
2018-12-01T19:05:51.362Z,8.30
2018-12-01T19:10:48.334Z,8.30
2018-12-01T19:13:16.679Z,8.30
2018-12-01T19:18:14.321Z,8.30
2018-12-01T19:23:13.836Z,8.30
2018-12-01T19:28:11.939Z,8.30
2018-12-01T19:30:40.273Z,8.30
2018-12-01T19:33:18.477Z,8.30
2018-12-01T19:35:48.610Z,8.30
2018-12-01T19:38:24.670Z,8.30
2018-12-01T19:40:53.327Z,8.30
2018-12-01T19:48:19.245Z,8.30
2018-12-01T19:50:47.556Z,8.40
2018-12-01T19:53:17.858Z,8.30
2018-12-01T19:55:48.645Z,8.40
2018-12-01T19:58:22.331Z,8.30
2018-12-01T20:00:55.423Z,8.30
2018-12-01T20:03:25.424Z,8.40
2018-12-01T20:10:54.731Z,8.40
2018-12-01T20:13:37.427Z,8.30
2018-12-01T20:16:31.613Z,8.40
2018-12-01T20:19:00.610Z,8.40
2018-12-01T20:21:31.771Z,8.40
2018-12-01T20:24:00.233Z,8.40
2018-12-01T20:31:25.579Z,8.40
2018-12-01T20:33:56.539Z,8.50
2018-12-01T20:36:41.833Z,8.50
2018-12-01T20:39:28.363Z,8.50
2018-12-01T20:41:56.768Z,8.50
2018-12-01T20:44:25.869Z,8.50
2018-12-01T20:46:54.433Z,8.60
2018-12-01T20:49:23.134Z,8.50
2018-12-01T20:51:52.545Z,8.50
2018-12-01T20:54:36.126Z,8.50
2018-12-01T20:57:17.146Z,8.40
2018-12-01T21:02:14.058Z,8.40
2018-12-01T21:04:42.415Z,8.40
2018-12-01T21:07:10.790Z,8.40
2018-12-01T21:09:39.477Z,8.40
2018-12-01T21:12:10.058Z,8.30
2018-12-01T21:14:38.939Z,8.40
2018-12-01T21:17:14.256Z,8.40
2018-12-01T21:19:42.921Z,8.40
2018-12-01T21:22:11.246Z,8.40
2018-12-01T21:24:39.708Z,8.30
2018-12-01T21:27:08.436Z,8.30
2018-12-01T21:29:37.426Z,8.30
2018-12-01T21:32:06.871Z,8.30
2018-12-01T21:37:04.476Z,8.30
2018-12-01T21:39:32.874Z,8.40
2018-12-01T21:42:01.708Z,8.30
2018-12-01T21:46:58.410Z,8.50
2018-12-01T21:49:26.769Z,8.50
2018-12-01T21:54:24.492Z,8.50
2018-12-01T21:59:21.873Z,8.50
2018-12-01T22:01:50.274Z,8.50
2018-12-01T22:04:20.021Z,8.60
2018-12-01T22:06:47.464Z,8.50
2018-12-01T22:09:16.308Z,8.50
2018-12-01T22:11:45.476Z,8.50
2018-12-01T22:14:14.806Z,8.50
2018-12-01T22:16:43.690Z,8.50
2018-12-01T22:21:40.286Z,8.60
2018-12-01T22:24:09.059Z,8.60
2018-12-01T22:26:37.412Z,8.60
2018-12-01T22:29:06.422Z,8.50
2018-12-01T22:31:34.740Z,8.60
2018-12-01T22:36:31.357Z,8.60
2018-12-01T22:43:56.330Z,8.90
2018-12-01T22:46:25.013Z,8.90
2018-12-01T22:48:53.784Z,8.90
2018-12-01T22:51:22.387Z,8.80
2018-12-01T22:53:50.892Z,8.80
2018-12-01T22:56:19.269Z,8.80
2018-12-01T22:58:47.627Z,8.80
2018-12-01T23:01:15.923Z,8.80
2018-12-01T23:03:44.407Z,8.80
2018-12-01T23:06:12.739Z,8.80
2018-12-01T23:08:41.143Z,8.80
2018-12-01T23:11:09.562Z,8.80
2018-12-01T23:13:38.039Z,8.80
2018-12-01T23:16:06.531Z,8.80
2018-12-01T23:18:34.935Z,8.80
2018-12-01T23:21:03.726Z,8.90
2018-12-01T23:23:32.143Z,8.90
2018-12-01T23:28:28.834Z,8.80
2018-12-01T23:30:57.958Z,8.90
2018-12-01T23:33:28.405Z,8.90
2018-12-01T23:35:56.772Z,9.00
2018-12-01T23:38:25.145Z,8.80
2018-12-01T23:40:53.483Z,8.80
2018-12-01T23:45:50.485Z,8.80
2018-12-01T23:48:18.870Z,8.70
2018-12-01T23:50:55.336Z,8.80
2018-12-01T23:53:24.982Z,8.80
2018-12-01T23:55:53.570Z,8.80
2018-12-01T23:58:21.909Z,8.80
